Time;durP1;ratioP1;P1;durP2;ratioP2;P2;SDS_P1;SDS_P2;PMS_P1;PMS_P2;Temp;Humidity;BMP_temperature;BMP_pressure;BME280_temperature;BME280_humidity;BME280_pressure;Samples;Min_cycle;Max_cycle;Signal;HPM_P1;HPM_P2
2021/11/29 00:02:06;;;;;;;13.35;5.30;;;22.20;99.90;;;;;;5053506;28;20025;-74
2021/11/29 00:04:33;;;;;;;11.02;4.90;;;22.00;99.90;;;;;;5053524;28;20029;-73
2021/11/29 00:07:00;;;;;;;10.63;4.97;;;22.10;99.90;;;;;;5053404;28;20482;-74
2021/11/29 00:09:28;;;;;;;12.43;5.70;;;22.10;99.90;;;;;;5053456;28;20052;-75
2021/11/29 00:11:55;;;;;;;14.43;5.85;;;22.40;99.90;;;;;;5055612;28;20060;-75
2021/11/29 00:14:22;;;;;;;11.32;5.40;;;22.70;99.90;;;;;;5056451;28;20033;-75
2021/11/29 00:16:50;;;;;;;9.43;5.18;;;22.70;99.90;;;;;;5057635;28;20029;-74
2021/11/29 00:19:17;;;;;;;15.35;5.25;;;22.70;99.90;;;;;;5057796;28;20049;-73
2021/11/29 00:21:44;;;;;;;12.93;5.78;;;22.20;99.90;;;;;;5055954;28;20025;-75
2021/11/29 00:24:12;;;;;;;12.90;5.07;;;22.30;99.90;;;;;;5055668;28;20036;-76
2021/11/29 00:26:40;;;;;;;15.95;6.03;;;22.70;99.90;;;;;;5055797;28;20074;-73
2021/11/29 00:29:07;;;;;;;70.00;20.05;;;22.70;99.90;;;;;;5057420;28;20386;-76
2021/11/29 00:31:34;;;;;;;10.90;5.55;;;23.10;99.90;;;;;;5055778;28;20071;-76
2021/11/29 00:34:02;;;;;;;13.27;5.43;;;23.00;99.90;;;;;;5057211;28;20051;-75
2021/11/29 00:36:29;;;;;;;14.07;5.50;;;23.00;99.90;;;;;;5057281;28;20104;-76
2021/11/29 00:38:56;;;;;;;14.52;5.70;;;23.10;99.90;;;;;;5055965;28;20468;-75
2021/11/29 00:41:24;;;;;;;14.60;5.28;;;23.00;99.90;;;;;;5056877;28;20434;-75
2021/11/29 00:43:51;;;;;;;15.23;5.40;;;23.00;99.90;;;;;;5055930;28;20025;-75
2021/11/29 00:46:18;;;;;;;13.32;5.78;;;22.80;99.90;;;;;;5057017;28;20032;-76
2021/11/29 00:48:50;;;;;;;12.70;5.30;;;22.90;99.90;;;;;;5055409;28;20071;-74
2021/11/29 00:51:17;;;;;;;12.98;5.55;;;23.20;99.90;;;;;;5055284;28;20517;-76
2021/11/29 00:53:46;;;;;;;14.95;6.60;;;23.40;99.90;;;;;;5055821;28;20021;-74
2021/11/29 00:56:18;;;;;;;12.57;5.75;;;23.90;99.90;;;;;;5056998;28;20036;-75
2021/11/29 00:58:46;;;;;;;13.45;5.90;;;23.70;99.90;;;;;;5055154;28;20025;-76
2021/11/29 01:01:14;;;;;;;12.90;5.78;;;23.70;99.90;;;;;;5055192;28;20478;-73
2021/11/29 01:03:41;;;;;;;10.18;5.72;;;23.90;99.90;;;;;;5054858;28;20029;-75
2021/11/29 01:06:09;;;;;;;10.30;5.60;;;23.70;99.90;;;;;;5055271;28;20470;-75
2021/11/29 01:08:37;;;;;;;16.63;5.20;;;24.00;99.90;;;;;;5054874;28;20025;-76
2021/11/29 01:11:06;;;;;;;12.48;5.20;;;23.90;99.90;;;;;;5056232;28;20025;-75
2021/11/29 01:13:34;;;;;;;12.15;5.20;;;23.90;99.90;;;;;;5054771;28;20128;-74
2021/11/29 01:16:01;;;;;;;14.85;5.15;;;23.80;99.90;;;;;;5056065;28;20074;-74
2021/11/29 01:18:29;;;;;;;13.52;4.63;;;23.40;99.90;;;;;;5054600;28;20481;-74
2021/11/29 01:20:56;;;;;;;12.55;5.40;;;23.20;99.90;;;;;;5054740;28;20388;-75
2021/11/29 01:23:24;;;;;;;20.35;5.88;;;23.00;99.90;;;;;;5054179;28;20178;-76
2021/11/29 01:25:54;;;;;;;15.73;5.45;;;22.80;99.90;;;;;;5055052;28;20385;-74
2021/11/29 01:28:22;;;;;;;16.35;5.30;;;22.80;99.90;;;;;;5056426;28;20108;-74
2021/11/29 01:30:51;;;;;;;12.88;5.43;;;23.10;99.90;;;;;;5056407;28;20110;-73
2021/11/29 01:33:18;;;;;;;14.15;4.95;;;23.80;99.90;;;;;;5054879;28;20486;-74
2021/11/29 01:35:46;;;;;;;11.13;5.13;;;23.90;99.90;;;;;;5054735;28;20028;-76
2021/11/29 01:38:13;;;;;;;11.13;6.22;;;24.40;99.90;;;;;;5054382;28;20120;-75
2021/11/29 01:40:41;;;;;;;12.05;5.43;;;24.60;99.90;;;;;;5054398;28;20044;-74
2021/11/29 01:43:17;;;;;;;12.98;5.55;;;24.30;99.90;;;;;;5054588;28;20049;-75
2021/11/29 01:45:48;;;;;;;13.80;5.28;;;23.90;99.90;;;;;;5055573;28;20035;-75
2021/11/29 01:48:16;;;;;;;10.75;5.10;;;23.70;99.90;;;;;;5054698;28;20120;-75
2021/11/29 01:50:47;;;;;;;15.68;5.82;;;23.40;99.90;;;;;;5056378;28;20529;-75
2021/11/29 01:53:15;;;;;;;10.35;5.35;;;23.30;99.90;;;;;;5056338;28;20047;-76
2021/11/29 01:55:45;;;;;;;13.07;5.30;;;23.20;99.90;;;;;;5056165;28;20040;-76
2021/11/29 01:58:13;;;;;;;13.45;5.50;;;23.10;99.90;;;;;;5056013;28;20020;-76
2021/11/29 02:00:46;;;;;;;13.18;5.35;;;23.10;99.90;;;;;;5055112;28;20116;-76
2021/11/29 02:03:15;;;;;;;12.00;5.20;;;22.60;99.90;;;;;;5055037;28;20374;-75
2021/11/29 02:05:43;;;;;;;13.10;5.50;;;22.60;99.90;;;;;;5054676;28;20033;-75
2021/11/29 02:08:11;;;;;;;13.75;5.72;;;22.70;99.90;;;;;;5054708;28;20021;-74
2021/11/29 02:10:39;;;;;;;14.27;5.03;;;23.00;99.90;;;;;;5055690;28;20032;-77
2021/11/29 02:13:06;;;;;;;13.80;5.38;;;22.80;99.90;;;;;;5056055;28;20067;-75
2021/11/29 02:15:34;;;;;;;18.88;5.47;;;23.00;99.90;;;;;;5053925;28;20482;-75
2021/11/29 02:18:01;;;;;;;10.75;4.55;;;23.30;99.90;;;;;;5055607;28;20359;-75
2021/11/29 02:20:34;;;;;;;12.98;5.00;;;23.10;99.90;;;;;;5054615;28;20028;-75
2021/11/29 02:23:03;;;;;;;11.23;5.05;;;23.30;99.90;;;;;;5055571;28;20497;-76
2021/11/29 02:25:30;;;;;;;14.48;5.93;;;23.50;99.90;;;;;;5054365;28;20024;-75
2021/11/29 02:27:58;;;;;;;15.55;5.57;;;23.70;99.90;;;;;;5055569;28;20021;-76
2021/11/29 02:30:27;;;;;;;12.30;5.03;;;23.90;99.90;;;;;;5054373;28;20477;-75
2021/11/29 02:32:55;;;;;;;12.00;5.47;;;23.80;99.90;;;;;;5054019;28;20498;-76
2021/11/29 02:35:23;;;;;;;13.80;5.45;;;24.10;99.90;;;;;;5055885;28;20031;-75
2021/11/29 02:37:52;;;;;;;16.55;5.95;;;24.20;99.90;;;;;;5055971;28;20017;-75
2021/11/29 02:40:19;;;;;;;11.05;5.45;;;24.20;99.90;;;;;;5054205;28;20120;-76
2021/11/29 02:42:47;;;;;;;12.05;5.00;;;24.00;99.90;;;;;;5055109;28;20486;-76
2021/11/29 02:45:17;;;;;;;11.32;5.20;;;23.90;99.90;;;;;;5055154;28;20021;-76
2021/11/29 02:47:44;;;;;;;13.15;4.85;;;23.90;99.90;;;;;;5054082;28;20017;-76
2021/11/29 02:50:11;;;;;;;12.07;5.07;;;24.10;99.90;;;;;;5053990;28;20021;-75
2021/11/29 02:52:40;;;;;;;11.73;5.20;;;24.00;99.90;;;;;;5055220;28;20029;-75
2021/11/29 02:55:08;;;;;;;13.25;5.35;;;23.80;99.90;;;;;;5054087;28;20029;-76
2021/11/29 02:57:36;;;;;;;13.57;4.75;;;23.60;99.90;;;;;;5055003;28;20484;-76
2021/11/29 03:00:06;;;;;;;10.68;4.55;;;23.80;99.90;;;;;;5054752;28;20028;-77
2021/11/29 03:02:34;;;;;;;12.73;4.47;;;24.00;99.90;;;;;;5053562;28;20022;-75
2021/11/29 03:05:03;;;;;;;13.57;4.90;;;24.10;99.90;;;;;;5054979;28;20423;-75
2021/11/29 03:07:31;;;;;;;11.27;4.55;;;24.00;99.90;;;;;;5054787;28;20481;-76
2021/11/29 03:09:58;;;;;;;11.85;5.20;;;23.90;99.90;;;;;;5053588;28;20048;-75
2021/11/29 03:12:26;;;;;;;12.57;5.07;;;23.80;99.90;;;;;;5053590;28;20037;-75
2021/11/29 03:14:53;;;;;;;13.63;5.13;;;23.80;99.90;;;;;;5054605;28;20025;-75
2021/11/29 03:17:20;;;;;;;11.45;5.18;;;24.40;99.90;;;;;;5053512;28;20112;-75
2021/11/29 03:19:48;;;;;;;9.05;4.78;;;24.90;99.90;;;;;;5054537;28;20021;-73
2021/11/29 03:22:15;;;;;;;10.43;4.90;;;25.20;99.90;;;;;;5054424;28;20426;-76
2021/11/29 03:24:46;;;;;;;10.00;4.40;;;25.20;99.90;;;;;;5054144;28;20108;-75
2021/11/29 03:27:12;;;;;;;;;;;25.40;99.90;;;;;;5054878;28;20025;-75
2021/11/29 03:29:40;;;;;;;15.55;5.28;;;25.90;99.90;;;;;;5053001;28;19909;-76
2021/11/29 03:32:10;;;;;;;11.40;4.93;;;26.20;99.90;;;;;;5053968;28;20021;-74
2021/11/29 03:34:37;;;;;;;13.05;4.72;;;26.40;99.90;;;;;;5053049;28;20091;-75
2021/11/29 03:37:05;;;;;;;10.13;4.22;;;26.00;99.90;;;;;;5052871;28;20025;-76
2021/11/29 03:39:33;;;;;;;11.68;4.57;;;25.40;99.90;;;;;;5053127;28;20021;-74
2021/11/29 03:42:05;;;;;;;8.45;4.80;;;24.80;99.90;;;;;;5052990;28;20049;-75
2021/11/29 03:44:33;;;;;;;10.57;4.57;;;24.70;99.90;;;;;;5053861;28;20029;-74
2021/11/29 03:47:00;;;;;;;15.30;5.20;;;24.60;99.90;;;;;;5053637;28;20078;-75
2021/11/29 03:49:28;;;;;;;9.23;3.90;;;24.80;99.90;;;;;;5054176;28;20042;-74
2021/11/29 03:51:56;;;;;;;13.05;4.13;;;24.60;99.90;;;;;;5054258;28;20032;-75
2021/11/29 03:54:24;;;;;;;10.27;4.28;;;24.20;99.90;;;;;;5052783;28;20029;-74
2021/11/29 03:56:52;;;;;;;11.43;4.97;;;23.70;99.90;;;;;;5052456;28;20399;-75
2021/11/29 03:59:19;;;;;;;12.27;4.70;;;22.90;99.90;;;;;;5052445;28;20490;-74
2021/11/29 04:01:48;;;;;;;11.50;4.63;;;22.70;99.90;;;;;;5053775;28;20036;-75
2021/11/29 04:04:15;;;;;;;14.32;4.70;;;22.90;99.90;;;;;;5053430;28;20032;-74
2021/11/29 04:06:43;;;;;;;12.80;4.70;;;22.90;99.90;;;;;;5053626;28;20043;-74
2021/11/29 04:09:11;;;;;;;13.73;4.80;;;22.80;99.90;;;;;;5052373;28;20082;-75
2021/11/29 04:11:38;;;;;;;8.88;4.05;;;22.80;99.90;;;;;;5053731;28;20022;-73
2021/11/29 04:14:06;;;;;;;9.98;4.90;;;22.70;99.90;;;;;;5052065;28;20120;-75
2021/11/29 04:16:34;;;;;;;15.02;4.80;;;22.50;99.90;;;;;;5052132;28;20025;-75
2021/11/29 04:19:03;;;;;;;10.57;4.93;;;22.20;99.90;;;;;;5052519;28;20531;-75
2021/11/29 04:21:30;;;;;;;12.32;4.72;;;22.50;99.90;;;;;;5053465;28;20022;-75
2021/11/29 04:23:58;;;;;;;13.05;4.20;;;22.50;99.90;;;;;;5053376;28;20028;-74
2021/11/29 04:26:27;;;;;;;10.45;4.90;;;22.30;99.90;;;;;;5052253;28;20389;-75
2021/11/29 04:28:55;;;;;;;10.80;4.80;;;22.30;99.90;;;;;;5052647;28;20040;-75
2021/11/29 04:31:22;;;;;;;8.70;4.82;;;22.50;99.90;;;;;;5053862;28;20028;-75
2021/11/29 04:33:50;;;;;;;13.75;4.90;;;22.50;99.90;;;;;;5053418;28;20025;-75
2021/11/29 04:36:17;;;;;;;11.35;4.93;;;22.60;99.90;;;;;;5053550;28;20052;-75
2021/11/29 04:38:44;;;;;;;10.60;5.20;;;22.30;99.90;;;;;;5053795;28;20005;-75
2021/11/29 04:41:12;;;;;;;11.90;5.03;;;22.40;99.90;;;;;;5053357;28;20501;-75
2021/11/29 04:43:39;;;;;;;13.30;5.28;;;22.30;99.90;;;;;;5053506;28;20052;-74
2021/11/29 04:46:06;;;;;;;15.93;5.43;;;22.30;99.90;;;;;;5052174;28;20021;-75
2021/11/29 04:48:34;;;;;;;11.27;5.15;;;21.90;99.90;;;;;;5052269;28;20039;-75
2021/11/29 04:51:01;;;;;;;13.45;6.10;;;21.90;99.90;;;;;;5052000;28;20500;-74
2021/11/29 04:53:28;;;;;;;11.23;4.45;;;21.90;99.90;;;;;;5052293;28;20031;-76
2021/11/29 04:55:56;;;;;;;11.95;4.38;;;21.90;99.90;;;;;;5052600;28;20112;-76
2021/11/29 04:58:23;;;;;;;10.73;4.60;;;21.70;99.90;;;;;;5057620;28;20017;-75
2021/11/29 05:00:51;;;;;;;10.55;4.22;;;21.70;99.90;;;;;;5057775;28;20021;-76
2021/11/29 05:03:20;;;;;;;10.50;4.10;;;21.70;99.90;;;;;;5057187;28;20537;-76
2021/11/29 05:05:47;;;;;;;8.80;3.97;;;21.60;99.90;;;;;;5056148;28;20021;-75
2021/11/29 05:08:15;;;;;;;10.07;4.32;;;21.40;99.90;;;;;;5055706;28;20028;-75
2021/11/29 05:10:43;;;;;;;14.88;4.65;;;21.10;99.90;;;;;;5055864;28;20116;-76
2021/11/29 05:13:12;;;;;;;11.02;4.95;;;21.10;99.90;;;;;;5057094;28;20032;-75
2021/11/29 05:15:39;;;;;;;13.48;4.50;;;21.10;99.90;;;;;;5056069;28;20021;-75
2021/11/29 05:18:07;;;;;;;13.95;5.13;;;21.30;99.90;;;;;;5055661;28;20107;-75
2021/11/29 05:20:34;;;;;;;12.07;5.20;;;21.50;99.90;;;;;;5057249;28;20028;-74
2021/11/29 05:23:02;;;;;;;13.35;5.20;;;21.60;99.90;;;;;;5055680;28;20032;-75
2021/11/29 05:25:30;;;;;;;10.52;5.68;;;21.60;99.90;;;;;;5057187;28;20021;-75
2021/11/29 05:27:58;;;;;;;10.68;5.22;;;21.90;99.90;;;;;;5056777;28;20021;-76
2021/11/29 05:30:25;;;;;;;8.95;4.50;;;21.90;99.90;;;;;;5056088;28;20482;-76
2021/11/29 05:32:53;;;;;;;11.43;4.90;;;21.90;99.90;;;;;;5054949;28;20032;-76
2021/11/29 05:35:20;;;;;;;9.20;3.60;;;21.80;99.90;;;;;;5056119;28;20064;-76
2021/11/29 05:37:47;;;;;;;12.93;4.85;;;21.60;99.90;;;;;;5055843;28;20477;-74
2021/11/29 05:40:15;;;;;;;10.05;4.72;;;21.80;99.90;;;;;;5056069;28;20029;-76
2021/11/29 05:42:43;;;;;;;13.68;4.95;;;21.80;99.90;;;;;;5055008;28;20497;-74
2021/11/29 05:45:11;;;;;;;8.38;5.20;;;21.60;99.90;;;;;;5056540;28;20390;-75
2021/11/29 05:47:38;;;;;;;10.88;5.00;;;21.70;99.90;;;;;;5054835;28;20084;-76
2021/11/29 05:50:08;;;;;;;11.60;4.85;;;21.80;99.90;;;;;;5056668;28;20108;-76
2021/11/29 05:52:36;;;;;;;13.73;5.75;;;22.10;99.90;;;;;;5056807;28;20056;-74
2021/11/29 05:55:05;;;;;;;7.47;3.78;;;21.90;99.90;;;;;;5056383;28;20473;-75
2021/11/29 05:57:32;;;;;;;12.02;4.45;;;21.80;99.90;;;;;;5056252;28;20040;-72
2021/11/29 06:00:00;;;;;;;7.97;4.20;;;21.60;99.90;;;;;;5054168;28;20025;-75
2021/11/29 06:02:27;;;;;;;8.18;4.55;;;21.60;99.90;;;;;;5054134;28;20025;-75
2021/11/29 06:04:55;;;;;;;13.05;4.55;;;21.60;99.90;;;;;;5054456;28;20021;-75
2021/11/29 06:07:22;;;;;;;8.45;4.38;;;21.70;99.90;;;;;;5054436;28;20036;-73
2021/11/29 06:09:49;;;;;;;13.10;5.30;;;21.80;99.90;;;;;;5054560;28;20099;-73
2021/11/29 06:12:17;;;;;;;12.55;5.20;;;21.40;99.90;;;;;;5054399;28;20025;-73
2021/11/29 06:14:44;;;;;;;13.10;5.75;;;21.60;99.90;;;;;;5053878;28;20024;-74
2021/11/29 06:17:12;;;;;;;16.38;6.90;;;21.60;99.90;;;;;;5054253;28;20029;-74
2021/11/29 06:19:39;;;;;;;9.60;4.93;;;21.70;99.90;;;;;;5053811;28;20500;-74
2021/11/29 06:22:06;;;;;;;11.45;5.47;;;21.70;99.90;;;;;;5053591;28;20110;-74
2021/11/29 06:24:34;;;;;;;6.88;4.55;;;21.60;99.90;;;;;;5053874;28;20024;-74
2021/11/29 06:27:01;;;;;;;7.70;4.13;;;21.50;99.90;;;;;;5054113;28;20029;-73
2021/11/29 06:29:28;;;;;;;10.57;4.75;;;21.20;99.90;;;;;;5054893;28;20082;-72
2021/11/29 06:31:55;;;;;;;15.73;5.18;;;21.00;99.90;;;;;;5054787;28;20456;-73
2021/11/29 06:34:25;;;;;;;9.95;4.30;;;21.00;99.90;;;;;;5054864;28;20053;-72
2021/11/29 06:36:53;;;;;;;8.13;4.38;;;20.90;99.90;;;;;;5054497;28;20040;-72
2021/11/29 06:39:22;;;;;;;10.15;4.47;;;20.90;99.90;;;;;;5053162;28;20083;-72
2021/11/29 06:41:50;;;;;;;8.30;4.57;;;21.00;99.90;;;;;;5052915;28;20076;-72
2021/11/29 06:44:17;;;;;;;6.90;3.72;;;21.10;99.90;;;;;;5054849;28;20025;-72
2021/11/29 06:46:44;;;;;;;6.82;3.67;;;21.00;99.90;;;;;;5054585;28;20048;-74
2021/11/29 06:49:12;;;;;;;9.60;4.20;;;21.00;99.90;;;;;;5053309;28;20433;-73
2021/11/29 06:51:39;;;;;;;10.68;4.50;;;20.90;99.90;;;;;;5053242;28;20025;-73
2021/11/29 06:54:06;;;;;;;9.13;4.88;;;20.90;99.90;;;;;;5052953;28;20035;-72
2021/11/29 06:56:34;;;;;;;9.30;4.25;;;20.70;99.90;;;;;;5054231;28;20021;-73
2021/11/29 06:59:01;;;;;;;9.10;4.95;;;20.60;99.90;;;;;;5053067;28;20059;-73
2021/11/29 07:01:28;;;;;;;13.38;5.47;;;20.50;99.90;;;;;;5054523;28;20025;-73
2021/11/29 07:03:56;;;;;;;9.25;4.30;;;20.60;99.90;;;;;;5052945;28;20457;-74
2021/11/29 07:06:23;;;;;;;8.52;4.53;;;20.60;99.90;;;;;;5052606;28;20360;-74
2021/11/29 07:08:50;;;;;;;9.45;4.28;;;20.60;99.90;;;;;;5052548;28;20386;-74
2021/11/29 07:11:18;;;;;;;11.02;4.57;;;20.60;99.90;;;;;;5052784;28;20025;-74
2021/11/29 07:13:46;;;;;;;13.27;5.70;;;20.50;99.90;;;;;;5052731;28;20040;-74
2021/11/29 07:16:14;;;;;;;10.73;4.28;;;20.60;99.90;;;;;;5053990;28;20035;-74
2021/11/29 07:18:41;;;;;;;10.98;5.13;;;20.40;99.90;;;;;;5053987;28;20046;-73
2021/11/29 07:21:10;;;;;;;10.57;4.75;;;20.30;99.90;;;;;;5053744;28;20020;-72
2021/11/29 07:23:38;;;;;;;9.93;4.75;;;20.30;99.90;;;;;;5052611;28;20033;-74
2021/11/29 07:26:07;;;;;;;11.25;4.68;;;20.30;99.90;;;;;;5052453;28;20025;-74
2021/11/29 07:28:34;;;;;;;8.75;3.70;;;20.30;99.90;;;;;;5052232;28;20078;-74
2021/11/29 07:31:02;;;;;;;14.70;5.78;;;20.20;99.90;;;;;;5052586;28;20227;-75
2021/11/29 07:33:29;;;;;;;10.80;5.57;;;20.10;99.90;;;;;;5052519;28;20120;-77
2021/11/29 07:35:57;;;;;;;12.40;5.18;;;20.00;99.90;;;;;;5052168;28;20029;-72
2021/11/29 07:38:24;;;;;;;11.23;5.00;;;20.00;99.90;;;;;;5053692;28;20029;-75
2021/11/29 07:40:51;;;;;;;8.43;4.65;;;19.90;99.90;;;;;;5052346;28;20045;-74
2021/11/29 07:43:19;;;;;;;10.43;4.70;;;19.80;99.90;;;;;;5053703;28;20438;-73
2021/11/29 07:45:46;;;;;;;12.68;4.95;;;19.70;99.90;;;;;;5052202;28;20429;-74
2021/11/29 07:48:16;;;;;;;9.98;5.57;;;19.70;99.90;;;;;;5053413;28;20061;-73
2021/11/29 07:50:43;;;;;;;9.05;5.07;;;19.60;99.90;;;;;;5052163;28;20025;-73
2021/11/29 07:53:11;;;;;;;10.30;5.18;;;19.60;99.90;;;;;;5053248;28;20033;-73
2021/11/29 07:55:38;;;;;;;10.77;5.00;;;19.60;99.90;;;;;;5053373;28;20482;-73
2021/11/29 07:58:06;;;;;;;9.82;5.13;;;19.50;99.90;;;;;;5053678;28;20029;-72
2021/11/29 08:00:36;;;;;;;13.80;6.10;;;19.50;99.90;;;;;;5052175;28;20033;-71
2021/11/29 08:03:07;;;;;;;11.73;5.57;;;19.50;99.90;;;;;;5052252;28;20479;-73
2021/11/29 08:05:36;;;;;;;14.07;5.50;;;19.50;99.90;;;;;;5054135;28;20021;-76
2021/11/29 08:08:05;;;;;;;11.32;5.93;;;19.50;99.90;;;;;;5052739;28;20021;-77
2021/11/29 08:10:34;;;;;;;12.38;5.60;;;19.40;99.90;;;;;;5054011;28;20029;-76
2021/11/29 08:13:03;;;;;;;11.45;5.78;;;19.40;99.90;;;;;;5052728;28;20052;-77
2021/11/29 08:15:30;;;;;;;11.65;5.38;;;19.30;99.90;;;;;;5054064;28;20035;-78
2021/11/29 08:17:57;;;;;;;12.55;5.75;;;19.40;99.90;;;;;;5054134;28;20036;-78
2021/11/29 08:20:25;;;;;;;12.50;5.72;;;19.40;99.90;;;;;;5053858;28;20025;-76
2021/11/29 08:22:53;;;;;;;10.50;5.63;;;19.50;99.90;;;;;;5053994;28;20033;-78
2021/11/29 08:25:21;;;;;;;11.27;5.90;;;19.40;99.90;;;;;;5054012;28;20025;-76
2021/11/29 08:27:48;;;;;;;8.65;4.80;;;19.30;99.90;;;;;;5053182;28;20021;-74
2021/11/29 08:30:19;;;;;;;16.38;5.93;;;19.20;99.90;;;;;;5052977;28;20163;-76
2021/11/29 08:32:47;;;;;;;11.40;5.82;;;19.10;99.90;;;;;;5056648;28;20112;-76
2021/11/29 08:35:17;;;;;;;12.00;5.53;;;19.10;99.90;;;;;;5056546;28;20338;-76
2021/11/29 08:37:49;;;;;;;15.38;5.50;;;19.10;99.90;;;;;;5057585;28;20049;-75
2021/11/29 08:40:27;;;;;;;11.00;5.85;;;19.20;99.90;;;;;;5056295;28;20112;-75
2021/11/29 08:43:00;;;;;;;12.77;4.88;;;19.10;99.90;;;;;;5056268;28;20037;-75
2021/11/29 08:45:28;;;;;;;10.50;4.60;;;19.00;99.90;;;;;;5058447;28;20102;-75
2021/11/29 08:47:57;;;;;;;8.65;4.20;;;19.00;99.90;;;;;;5057888;28;20017;-75
2021/11/29 08:50:24;;;;;;;10.23;4.80;;;19.00;99.90;;;;;;5056757;28;20103;-75
2021/11/29 08:52:52;;;;;;;12.27;5.30;;;18.90;99.90;;;;;;5056814;28;20082;-78
2021/11/29 08:55:20;;;;;;;14.52;4.78;;;18.90;99.90;;;;;;5057225;28;20024;-77
2021/11/29 08:57:48;;;;;;;11.93;5.28;;;19.00;99.90;;;;;;5058249;28;20025;-77
2021/11/29 09:00:18;;;;;;;10.85;4.70;;;18.90;99.90;;;;;;5058321;28;20040;-77
2021/11/29 09:02:47;;;;;;;9.98;4.57;;;18.90;99.90;;;;;;5056602;28;20025;-77
2021/11/29 09:05:17;;;;;;;8.25;5.13;;;18.90;99.90;;;;;;5058567;28;20021;-76
2021/11/29 09:07:48;;;;;;;8.88;4.90;;;18.80;99.90;;;;;;5057712;28;20021;-76
2021/11/29 09:10:16;;;;;;;12.75;5.50;;;18.80;99.90;;;;;;5057654;28;20083;-79
2021/11/29 09:12:43;;;;;;;12.90;5.78;;;18.80;99.90;;;;;;5057998;28;20078;-76
2021/11/29 09:15:16;;;;;;;9.85;5.40;;;18.70;99.90;;;;;;5058672;28;20029;-75
2021/11/29 09:17:44;;;;;;;8.65;5.80;;;18.50;99.90;;;;;;5040681;28;20032;-75
2021/11/29 09:20:14;;;;;;;10.70;6.03;;;18.60;99.90;;;;;;5056651;28;20032;-76
2021/11/29 09:22:41;;;;;;;;;;;18.50;99.90;;;;;;5057923;28;20025;-76
2021/11/29 09:25:11;;;;;;;13.80;6.25;;;18.50;99.90;;;;;;5056676;28;19905;-75
2021/11/29 09:27:40;;;;;;;11.25;6.60;;;18.50;99.90;;;;;;5058068;28;20021;-76
2021/11/29 09:30:10;;;;;;;9.15;6.30;;;18.40;99.90;;;;;;5056250;28;20021;-75
2021/11/29 09:32:38;;;;;;;10.63;5.75;;;18.40;99.90;;;;;;5039435;28;20045;-75
2021/11/29 09:35:07;;;;;;;10.88;6.35;;;18.30;99.90;;;;;;5055783;28;20033;-76
2021/11/29 09:37:37;;;;;;;13.40;6.95;;;18.30;99.90;;;;;;5055579;28;20031;-76
2021/11/29 09:40:11;;;;;;;12.43;6.50;;;18.30;99.90;;;;;;5057732;28;20469;-76
2021/11/29 09:42:39;;;;;;;10.13;6.10;;;18.20;99.90;;;;;;5055089;28;20132;-75
2021/11/29 09:45:08;;;;;;;11.10;6.50;;;18.20;99.90;;;;;;5057403;28;20021;-75
2021/11/29 09:47:35;;;;;;;10.65;6.95;;;18.10;99.90;;;;;;5056949;28;20037;-74
2021/11/29 09:50:06;;;;;;;10.68;6.80;;;18.10;99.90;;;;;;5057158;28;20027;-74
2021/11/29 09:52:34;;;;;;;10.55;6.85;;;18.10;99.90;;;;;;5055641;28;20116;-75
2021/11/29 09:55:03;;;;;;;14.85;7.25;;;18.10;99.90;;;;;;5055646;28;20164;-76
2021/11/29 09:57:31;;;;;;;10.13;7.50;;;18.10;99.90;;;;;;5039261;28;20036;-76
2021/11/29 09:59:58;;;;;;;9.77;7.60;;;18.10;99.90;;;;;;5057188;28;20046;-74
2021/11/29 10:02:25;;;;;;;9.23;6.85;;;18.10;99.90;;;;;;5055202;28;20031;-74
2021/11/29 10:04:53;;;;;;;9.75;6.70;;;18.10;99.90;;;;;;5056092;28;20096;-74
2021/11/29 10:07:37;;;;;;;9.93;7.03;;;18.10;99.90;;;;;;5056171;28;20074;-76
2021/11/29 10:10:23;;;;;;;8.70;6.97;;;18.10;99.90;;;;;;5054252;28;20501;-75
2021/11/29 10:12:52;;;;;;;11.00;7.65;;;18.10;99.90;;;;;;5055003;28;20032;-75
2021/11/29 10:15:32;;;;;;;11.13;7.57;;;18.10;99.90;;;;;;5055023;28;20543;-75
2021/11/29 10:18:29;;;;;;;16.07;7.83;;;18.20;99.90;;;;;;5055974;28;20402;-75
2021/11/29 10:21:07;;;;;;;8.18;7.10;;;18.20;99.90;;;;;;5054718;28;20033;-75
2021/11/29 10:23:34;;;;;;;12.65;7.30;;;18.40;99.90;;;;;;5054534;28;20112;-75
2021/11/29 10:26:10;;;;;;;9.60;7.75;;;18.40;99.90;;;;;;5054689;28;20017;-75
2021/11/29 10:28:44;;;;;;;8.27;7.35;;;18.40;99.90;;;;;;5054943;28;20025;-75
2021/11/29 10:31:14;;;;;;;11.10;7.25;;;18.40;99.90;;;;;;5038273;28;20025;-75
2021/11/29 10:33:55;;;;;;;14.13;8.43;;;18.50;99.90;;;;;;5055962;28;20024;-75
2021/11/29 10:36:24;;;;;;;10.93;7.95;;;18.50;99.90;;;;;;5056021;28;20025;-74
2021/11/29 10:38:59;;;;;;;9.77;8.85;;;18.50;99.90;;;;;;5054745;28;20055;-75
2021/11/29 10:41:34;;;;;;;13.10;8.57;;;18.60;99.90;;;;;;5055733;28;20045;-74
2021/11/29 10:44:03;;;;;;;13.40;8.60;;;18.50;99.90;;;;;;5054143;28;20028;-75
2021/11/29 10:46:36;;;;;;;12.75;8.85;;;18.50;99.90;;;;;;5056073;28;20029;-74
2021/11/29 10:49:09;;;;;;;15.10;9.27;;;18.40;99.90;;;;;;5054232;28;20021;-74
2021/11/29 10:51:38;;;;;;;12.77;8.70;;;18.60;99.90;;;;;;5055824;28;20025;-75
2021/11/29 10:54:11;;;;;;;12.82;9.50;;;18.50;99.90;;;;;;5055265;28;20132;-74
2021/11/29 10:56:41;;;;;;;11.18;9.05;;;18.50;99.90;;;;;;5054100;28;20112;-74
2021/11/29 10:59:13;;;;;;;17.60;9.65;;;18.50;99.90;;;;;;5038081;28;20033;-74
2021/11/29 11:01:58;;;;;;;13.07;10.75;;;18.60;99.90;;;;;;5053992;28;20033;-76
2021/11/29 11:04:28;;;;;;;15.82;9.27;;;18.60;99.90;;;;;;5054815;28;20025;-74
2021/11/29 11:06:58;;;;;;;12.77;9.00;;;18.60;99.90;;;;;;5053735;28;20105;-75
2021/11/29 11:09:28;;;;;;;13.77;8.60;;;18.60;99.90;;;;;;5053605;28;20501;-75
2021/11/29 11:12:02;;;;;;;12.50;10.18;;;18.60;99.90;;;;;;5053444;28;20021;-75
2021/11/29 11:14:33;;;;;;;12.80;10.63;;;18.60;99.90;;;;;;5055087;28;20490;-76
2021/11/29 11:17:04;;;;;;;15.70;9.73;;;18.60;99.90;;;;;;5055256;28;20093;-74
2021/11/29 11:19:40;;;;;;;12.60;10.07;;;18.60;99.90;;;;;;5054883;28;20021;-74
2021/11/29 11:22:13;;;;;;;12.73;10.60;;;18.60;99.90;;;;;;5053573;28;20090;-75
2021/11/29 11:24:43;;;;;;;11.05;10.02;;;18.60;99.90;;;;;;5054368;28;20022;-75
2021/11/29 11:27:10;;;;;;;12.07;10.33;;;18.70;99.90;;;;;;5053263;28;20496;-75
2021/11/29 11:29:47;;;;;;;13.73;9.98;;;18.70;99.90;;;;;;5054750;28;20280;-75
2021/11/29 11:32:37;;;;;;;14.73;10.70;;;18.70;99.90;;;;;;5053035;28;20025;-76
2021/11/29 11:35:08;;;;;;;12.50;10.77;;;18.60;99.90;;;;;;5054509;28;20033;-75
2021/11/29 11:37:42;;;;;;;11.52;9.00;;;18.70;99.90;;;;;;5054728;28;20382;-77
2021/11/29 11:40:16;;;;;;;11.85;10.50;;;18.70;99.90;;;;;;5054798;28;20084;-76
2021/11/29 11:42:44;;;;;;;10.73;7.93;;;18.70;99.90;;;;;;5054039;28;20067;-76
2021/11/29 11:45:21;;;;;;;13.43;9.60;;;18.70;99.90;;;;;;5053161;28;20143;-75
2021/11/29 11:47:51;;;;;;;12.73;9.75;;;18.70;99.90;;;;;;5052943;28;20021;-75
2021/11/29 11:50:25;;;;;;;13.77;9.63;;;18.70;99.90;;;;;;5054512;28;20385;-75
2021/11/29 11:52:54;;;;;;;11.05;9.02;;;18.70;99.90;;;;;;5053267;28;20029;-75
2021/11/29 11:55:29;;;;;;;11.35;8.90;;;18.80;99.90;;;;;;5053283;28;20029;-75
2021/11/29 11:57:58;;;;;;;10.65;9.02;;;18.80;99.90;;;;;;5052831;28;20025;-75
2021/11/29 12:00:26;;;;;;;14.38;9.57;;;18.80;99.90;;;;;;5054424;28;20072;-74
2021/11/29 12:03:12;;;;;;;11.82;8.52;;;18.80;99.90;;;;;;5053966;28;20548;-73
2021/11/29 12:05:50;;;;;;;11.18;10.13;;;18.80;99.90;;;;;;5054268;28;20363;-75
2021/11/29 12:08:46;;;;;;;12.00;10.90;;;18.80;99.90;;;;;;5054118;28;20037;-75
2021/11/29 12:11:26;;;;;;;12.93;10.45;;;18.80;99.90;;;;;;5052813;28;20095;-74
2021/11/29 12:14:18;;;;;;;15.95;10.15;;;18.80;99.90;;;;;;5052734;28;20397;-74
2021/11/29 12:16:59;;;;;;;11.95;9.57;;;18.70;99.90;;;;;;5053891;28;20485;-74
2021/11/29 12:22:26;;;;;;;12.02;10.02;;;18.80;99.90;;;;;;5040742;28;20167;-75
2021/11/29 12:24:59;;;;;;;13.13;10.23;;;18.80;99.90;;;;;;5052003;28;20456;-76
2021/11/29 12:27:46;;;;;;;15.05;10.30;;;18.80;99.90;;;;;;5052538;28;20025;-75
2021/11/29 12:30:44;;;;;;;11.40;10.27;;;18.80;99.90;;;;;;5052785;28;20070;-74
2021/11/29 12:33:17;;;;;;;13.88;11.10;;;18.80;99.90;;;;;;5052491;28;20028;-75
2021/11/29 12:36:01;;;;;;;13.73;10.75;;;18.80;99.90;;;;;;5052700;28;20029;-76
2021/11/29 12:38:28;;;;;;;15.18;10.55;;;18.70;99.90;;;;;;5053578;28;20027;-75
2021/11/29 12:41:09;;;;;;;15.10;10.88;;;18.80;99.90;;;;;;5052178;28;20132;-75
2021/11/29 12:43:46;;;;;;;11.80;10.15;;;18.80;99.90;;;;;;5052246;28;20087;-75
2021/11/29 12:46:21;;;;;;;11.82;10.60;;;18.80;99.90;;;;;;5053880;28;20567;-74
2021/11/29 12:48:50;;;;;;;13.20;11.27;;;18.80;99.90;;;;;;5053853;28;20470;-75
2021/11/29 12:51:41;;;;;;;13.10;11.45;;;18.80;99.90;;;;;;5053581;28;20044;-75
2021/11/29 12:54:39;;;;;;;15.85;11.25;;;18.80;99.90;;;;;;5052756;28;20035;-75